Halesworth, United Kingdom
Current Conditions -  °F | °C
As of 4:50 PM on Thursday 30 Oct 2014 (Local Time) from EGSD Reporting Station
Few Clouds Few Clouds  
Wind Chill: 61°   Ceiling: Unl
Heat Index: 61°   Visibility: 6mi
Dew Point: 57°   Wind: 3mph
Humidity: 88%   Direction: 190°S
Pressure: 30.06"   Gusts: NA
Location:  52.35°N, 1.5°E
Report Text: EGSD 301650Z 19003KT 9999 FEW020 16/14 Q1018
Loading
Personal Weather Stations






























Interactive Weather Map New forecast layout! Learn more

10-Day Weather Forecast

Advertisements
Track Severe Weather on mobile